CheckWX is a tool to help pilots better visualize weather data.  It is not intended as a substitute for an official pre-flight weather briefing.

03:33:54 UTC

KHJO METAR
Hanford Municipal Airport
Hanford, California, USA
Current

41 mins ago

KHJO 130253Z AUTO 00000KT 5SM BR CLR 12/10 A3028 RMK AO2 SLP257 T01170100 53002
Observed
Dec-13 @ 02:53 UTC
Visibility
5 SM
Flight Rules
MVFR
Conditions
Mist
Cloud Levels
  • Clear skies
Temperature
12°C / 54°F
Dewpoint
10°C / 50°F
Humidity
88%
Altimeter
30.28" Hg
Pressure
1025.42 hPa
Previous

2 hours ago

KHJO 130153Z AUTO 00000KT 6SM BR CLR 12/11 A3028 RMK AO2 SLP255 T01220106
Observed
Dec-13 @ 01:53 UTC
Visibility
6 SM
Flight Rules
VFR
Conditions
Mist
Cloud Levels
  • Clear skies
Temperature
12°C / 54°F
Dewpoint
11°C / 52°F
Humidity
94%
Altimeter
30.28" Hg
Pressure
1025.42 hPa
Previous

3 hours ago

KHJO 130053Z AUTO 00000KT 5SM HZ CLR 15/11 A3027 RMK AO2 SLP252 T01500106
Observed
Dec-13 @ 00:53 UTC
Visibility
5 SM
Flight Rules
MVFR
Conditions
Haze
Cloud Levels
  • Clear skies
Temperature
15°C / 59°F
Dewpoint
11°C / 52°F
Humidity
77%
Altimeter
30.27" Hg
Pressure
1025.02 hPa